sensor_id;sensor_type;location;lat;lon;timestamp;temperature;humidity
25280;DHT22;13225;47.804;12.116;2023-09-08T00:02:25;14.10;99.90
25280;DHT22;13225;47.804;12.116;2023-09-08T00:04:51;14.10;99.90
25280;DHT22;13225;47.804;12.116;2023-09-08T00:07:16;14.10;99.90
25280;DHT22;13225;47.804;12.116;2023-09-08T00:09:42;14.10;99.90
25280;DHT22;13225;47.804;12.116;2023-09-08T00:12:07;14.10;99.90
25280;DHT22;13225;47.804;12.116;2023-09-08T00:14:33;14.00;99.90
25280;DHT22;13225;47.804;12.116;2023-09-08T00:16:58;14.10;99.90
25280;DHT22;13225;47.804;12.116;2023-09-08T00:19:25;14.10;99.90
25280;DHT22;13225;47.804;12.116;2023-09-08T00:21:50;14.00;99.90
25280;DHT22;13225;47.804;12.116;2023-09-08T00:24:16;14.00;99.90
25280;DHT22;13225;47.804;12.116;2023-09-08T00:26:43;14.00;99.90
25280;DHT22;13225;47.804;12.116;2023-09-08T00:29:08;14.00;99.90
25280;DHT22;13225;47.804;12.116;2023-09-08T00:31:34;14.00;99.90
25280;DHT22;13225;47.804;12.116;2023-09-08T00:33:59;14.00;99.90
25280;DHT22;13225;47.804;12.116;2023-09-08T00:36:25;14.00;99.90
25280;DHT22;13225;47.804;12.116;2023-09-08T00:38:51;14.00;99.90
25280;DHT22;13225;47.804;12.116;2023-09-08T00:41:16;13.90;99.90
25280;DHT22;13225;47.804;12.116;2023-09-08T00:43:42;13.70;99.90
25280;DHT22;13225;47.804;12.116;2023-09-08T00:46:08;13.70;99.90
25280;DHT22;13225;47.804;12.116;2023-09-08T00:48:34;13.70;99.90
25280;DHT22;13225;47.804;12.116;2023-09-08T00:51:00;13.60;99.90
25280;DHT22;13225;47.804;12.116;2023-09-08T00:53:26;13.60;99.90
25280;DHT22;13225;47.804;12.116;2023-09-08T00:55:52;13.60;99.90
25280;DHT22;13225;47.804;12.116;2023-09-08T00:58:19;13.70;99.90
25280;DHT22;13225;47.804;12.116;2023-09-08T01:00:44;13.60;99.90
25280;DHT22;13225;47.804;12.116;2023-09-08T01:03:11;13.60;99.90
25280;DHT22;13225;47.804;12.116;2023-09-08T01:05:37;13.60;99.90
25280;DHT22;13225;47.804;12.116;2023-09-08T01:08:04;13.60;99.90
25280;DHT22;13225;47.804;12.116;2023-09-08T01:10:30;13.60;99.90
25280;DHT22;13225;47.804;12.116;2023-09-08T01:12:55;13.60;99.90
25280;DHT22;13225;47.804;12.116;2023-09-08T01:15:21;13.60;99.90
25280;DHT22;13225;47.804;12.116;2023-09-08T01:17:46;13.60;99.90
25280;DHT22;13225;47.804;12.116;2023-09-08T01:20:30;13.50;99.90
25280;DHT22;13225;47.804;12.116;2023-09-08T01:25:25;13.50;99.90
25280;DHT22;13225;47.804;12.116;2023-09-08T01:27:56;13.60;99.90
25280;DHT22;13225;47.804;12.116;2023-09-08T01:30:24;13.60;99.90
25280;DHT22;13225;47.804;12.116;2023-09-08T01:32:50;13.70;99.90
25280;DHT22;13225;47.804;12.116;2023-09-08T01:35:16;13.70;99.90
25280;DHT22;13225;47.804;12.116;2023-09-08T01:37:44;13.70;99.90
25280;DHT22;13225;47.804;12.116;2023-09-08T01:40:11;13.70;99.90
25280;DHT22;13225;47.804;12.116;2023-09-08T01:42:37;13.70;99.90
25280;DHT22;13225;47.804;12.116;2023-09-08T01:45:04;13.70;99.90
25280;DHT22;13225;47.804;12.116;2023-09-08T01:47:30;13.60;99.90
25280;DHT22;13225;47.804;12.116;2023-09-08T01:49:55;13.60;99.90
25280;DHT22;13225;47.804;12.116;2023-09-08T01:52:21;13.60;99.90
25280;DHT22;13225;47.804;12.116;2023-09-08T01:54:46;13.60;99.90
25280;DHT22;13225;47.804;12.116;2023-09-08T01:57:13;13.50;99.90
25280;DHT22;13225;47.804;12.116;2023-09-08T01:59:38;13.50;99.90
25280;DHT22;13225;47.804;12.116;2023-09-08T02:02:04;13.50;99.90
25280;DHT22;13225;47.804;12.116;2023-09-08T02:04:30;13.40;99.90
25280;DHT22;13225;47.804;12.116;2023-09-08T02:06:55;13.40;99.90
25280;DHT22;13225;47.804;12.116;2023-09-08T02:09:21;13.30;99.90
25280;DHT22;13225;47.804;12.116;2023-09-08T02:11:47;13.30;99.90
25280;DHT22;13225;47.804;12.116;2023-09-08T02:14:13;13.20;99.90
25280;DHT22;13225;47.804;12.116;2023-09-08T02:16:38;13.10;99.90
25280;DHT22;13225;47.804;12.116;2023-09-08T02:19:05;13.10;99.90
25280;DHT22;13225;47.804;12.116;2023-09-08T02:21:30;13.20;99.90
25280;DHT22;13225;47.804;12.116;2023-09-08T02:23:56;13.10;99.90
25280;DHT22;13225;47.804;12.116;2023-09-08T02:26:21;13.10;99.90
25280;DHT22;13225;47.804;12.116;2023-09-08T02:28:47;13.10;99.90
25280;DHT22;13225;47.804;12.116;2023-09-08T02:31:12;13.10;99.90
25280;DHT22;13225;47.804;12.116;2023-09-08T02:33:38;13.10;99.90
25280;DHT22;13225;47.804;12.116;2023-09-08T02:36:04;13.10;99.90
25280;DHT22;13225;47.804;12.116;2023-09-08T02:38:34;13.10;99.90
25280;DHT22;13225;47.804;12.116;2023-09-08T02:40:59;13.10;99.90
25280;DHT22;13225;47.804;12.116;2023-09-08T02:43:25;13.10;99.90
25280;DHT22;13225;47.804;12.116;2023-09-08T02:45:50;13.10;99.90
25280;DHT22;13225;47.804;12.116;2023-09-08T02:48:16;13.10;99.90
25280;DHT22;13225;47.804;12.116;2023-09-08T02:50:43;13.10;99.90
25280;DHT22;13225;47.804;12.116;2023-09-08T02:53:08;13.10;99.90
25280;DHT22;13225;47.804;12.116;2023-09-08T02:55:34;13.10;99.90
25280;DHT22;13225;47.804;12.116;2023-09-08T02:58:00;13.00;99.90
25280;DHT22;13225;47.804;12.116;2023-09-08T03:00:25;13.00;99.90
25280;DHT22;13225;47.804;12.116;2023-09-08T03:02:51;13.00;99.90
25280;DHT22;13225;47.804;12.116;2023-09-08T03:05:16;13.00;99.90
25280;DHT22;13225;47.804;12.116;2023-09-08T03:07:42;12.90;99.90
25280;DHT22;13225;47.804;12.116;2023-09-08T03:10:07;12.90;99.90
25280;DHT22;13225;47.804;12.116;2023-09-08T03:12:33;12.90;99.90
25280;DHT22;13225;47.804;12.116;2023-09-08T03:15:01;12.80;99.90
25280;DHT22;13225;47.804;12.116;2023-09-08T03:17:27;12.80;99.90
25280;DHT22;13225;47.804;12.116;2023-09-08T03:19:53;12.90;99.90
25280;DHT22;13225;47.804;12.116;2023-09-08T03:22:18;12.90;99.90
25280;DHT22;13225;47.804;12.116;2023-09-08T03:24:44;12.80;99.90
25280;DHT22;13225;47.804;12.116;2023-09-08T03:27:09;12.90;99.90
25280;DHT22;13225;47.804;12.116;2023-09-08T03:29:35;12.90;99.90
25280;DHT22;13225;47.804;12.116;2023-09-08T03:32:00;12.80;99.90
25280;DHT22;13225;47.804;12.116;2023-09-08T03:34:26;12.80;99.90
25280;DHT22;13225;47.804;12.116;2023-09-08T03:36:54;12.80;99.90
25280;DHT22;13225;47.804;12.116;2023-09-08T03:39:20;12.80;99.90
25280;DHT22;13225;47.804;12.116;2023-09-08T03:41:46;12.80;99.90
25280;DHT22;13225;47.804;12.116;2023-09-08T03:44:11;12.80;99.90
25280;DHT22;13225;47.804;12.116;2023-09-08T03:46:37;12.80;99.90
25280;DHT22;13225;47.804;12.116;2023-09-08T03:49:02;12.80;99.90
25280;DHT22;13225;47.804;12.116;2023-09-08T03:51:28;12.80;99.90
25280;DHT22;13225;47.804;12.116;2023-09-08T03:53:54;12.70;99.90
25280;DHT22;13225;47.804;12.116;2023-09-08T03:56:20;12.70;99.90
25280;DHT22;13225;47.804;12.116;2023-09-08T03:58:46;12.70;99.90
25280;DHT22;13225;47.804;12.116;2023-09-08T04:01:11;12.70;99.90
25280;DHT22;13225;47.804;12.116;2023-09-08T04:03:37;12.80;99.90
25280;DHT22;13225;47.804;12.116;2023-09-08T04:06:03;12.80;99.90
25280;DHT22;13225;47.804;12.116;2023-09-08T04:08:28;12.80;99.90
25280;DHT22;13225;47.804;12.116;2023-09-08T04:10:54;12.70;99.90
25280;DHT22;13225;47.804;12.116;2023-09-08T04:13:19;12.70;99.90
25280;DHT22;13225;47.804;12.116;2023-09-08T04:15:45;12.70;99.90
25280;DHT22;13225;47.804;12.116;2023-09-08T04:18:10;12.70;99.90
25280;DHT22;13225;47.804;12.116;2023-09-08T04:20:36;12.70;99.90
25280;DHT22;13225;47.804;12.116;2023-09-08T04:23:01;12.70;99.90
25280;DHT22;13225;47.804;12.116;2023-09-08T04:25:27;12.60;99.90
25280;DHT22;13225;47.804;12.116;2023-09-08T04:27:53;12.70;99.90
25280;DHT22;13225;47.804;12.116;2023-09-08T04:30:18;12.60;99.90
25280;DHT22;13225;47.804;12.116;2023-09-08T04:32:44;12.60;99.90
25280;DHT22;13225;47.804;12.116;2023-09-08T04:35:09;12.60;99.90
25280;DHT22;13225;47.804;12.116;2023-09-08T04:37:35;12.60;99.90
25280;DHT22;13225;47.804;12.116;2023-09-08T04:40:02;12.60;99.90
25280;DHT22;13225;47.804;12.116;2023-09-08T04:42:28;12.60;99.90
25280;DHT22;13225;47.804;12.116;2023-09-08T04:44:55;12.50;99.90
25280;DHT22;13225;47.804;12.116;2023-09-08T04:47:20;12.50;99.90
25280;DHT22;13225;47.804;12.116;2023-09-08T04:49:46;12.50;99.90
25280;DHT22;13225;47.804;12.116;2023-09-08T04:52:11;12.50;99.90
25280;DHT22;13225;47.804;12.116;2023-09-08T04:54:37;12.50;99.90
25280;DHT22;13225;47.804;12.116;2023-09-08T04:57:03;12.50;99.90
25280;DHT22;13225;47.804;12.116;2023-09-08T04:59:29;12.60;99.90
25280;DHT22;13225;47.804;12.116;2023-09-08T05:01:54;12.70;99.90
25280;DHT22;13225;47.804;12.116;2023-09-08T05:04:20;12.70;99.90
25280;DHT22;13225;47.804;12.116;2023-09-08T05:06:46;12.70;99.90
25280;DHT22;13225;47.804;12.116;2023-09-08T05:09:12;12.80;99.90
25280;DHT22;13225;47.804;12.116;2023-09-08T05:11:38;12.90;99.90
25280;DHT22;13225;47.804;12.116;2023-09-08T05:14:04;12.90;99.90
25280;DHT22;13225;47.804;12.116;2023-09-08T05:16:30;12.90;99.90
25280;DHT22;13225;47.804;12.116;2023-09-08T05:19:03;12.90;99.90
25280;DHT22;13225;47.804;12.116;2023-09-08T05:21:30;13.00;99.90
25280;DHT22;13225;47.804;12.116;2023-09-08T05:23:56;13.00;99.90
25280;DHT22;13225;47.804;12.116;2023-09-08T05:26:22;13.00;99.90
25280;DHT22;13225;47.804;12.116;2023-09-08T05:28:47;13.10;99.90
25280;DHT22;13225;47.804;12.116;2023-09-08T05:31:13;13.10;99.90
25280;DHT22;13225;47.804;12.116;2023-09-08T05:33:39;13.20;99.90
25280;DHT22;13225;47.804;12.116;2023-09-08T05:36:04;13.30;99.90
25280;DHT22;13225;47.804;12.116;2023-09-08T05:38:30;13.40;99.90
25280;DHT22;13225;47.804;12.116;2023-09-08T05:40:56;13.40;99.90
25280;DHT22;13225;47.804;12.116;2023-09-08T05:43:23;13.50;99.90
25280;DHT22;13225;47.804;12.116;2023-09-08T05:45:48;13.50;99.90
25280;DHT22;13225;47.804;12.116;2023-09-08T05:48:14;13.60;99.90
25280;DHT22;13225;47.804;12.116;2023-09-08T05:50:39;13.80;99.90
25280;DHT22;13225;47.804;12.116;2023-09-08T05:53:05;13.90;99.90
25280;DHT22;13225;47.804;12.116;2023-09-08T05:55:30;14.00;99.90
25280;DHT22;13225;47.804;12.116;2023-09-08T05:57:56;14.10;99.90
25280;DHT22;13225;47.804;12.116;2023-09-08T06:00:21;14.10;99.90
25280;DHT22;13225;47.804;12.116;2023-09-08T06:02:47;14.10;99.90
25280;DHT22;13225;47.804;12.116;2023-09-08T06:05:13;14.20;99.90
25280;DHT22;13225;47.804;12.116;2023-09-08T06:07:39;14.20;99.90
25280;DHT22;13225;47.804;12.116;2023-09-08T06:10:05;14.30;99.90
25280;DHT22;13225;47.804;12.116;2023-09-08T06:12:30;14.40;99.90
25280;DHT22;13225;47.804;12.116;2023-09-08T06:14:56;14.40;99.90
25280;DHT22;13225;47.804;12.116;2023-09-08T06:17:21;14.60;99.90
25280;DHT22;13225;47.804;12.116;2023-09-08T06:19:47;14.70;99.90
25280;DHT22;13225;47.804;12.116;2023-09-08T06:22:12;14.70;99.90
25280;DHT22;13225;47.804;12.116;2023-09-08T06:24:38;14.80;99.90
25280;DHT22;13225;47.804;12.116;2023-09-08T06:27:05;15.00;99.90
25280;DHT22;13225;47.804;12.116;2023-09-08T06:29:30;15.10;99.90
25280;DHT22;13225;47.804;12.116;2023-09-08T06:31:56;15.20;99.90
25280;DHT22;13225;47.804;12.116;2023-09-08T06:34:22;15.40;99.90
25280;DHT22;13225;47.804;12.116;2023-09-08T06:36:48;15.40;99.90
25280;DHT22;13225;47.804;12.116;2023-09-08T06:39:14;15.60;99.90
25280;DHT22;13225;47.804;12.116;2023-09-08T06:41:40;15.70;99.90
25280;DHT22;13225;47.804;12.116;2023-09-08T06:44:05;15.90;99.90
25280;DHT22;13225;47.804;12.116;2023-09-08T06:46:31;16.10;99.90
25280;DHT22;13225;47.804;12.116;2023-09-08T06:48:57;16.20;99.90
25280;DHT22;13225;47.804;12.116;2023-09-08T06:51:22;16.30;99.90
25280;DHT22;13225;47.804;12.116;2023-09-08T06:53:57;16.50;99.90
25280;DHT22;13225;47.804;12.116;2023-09-08T06:56:25;16.70;99.90
25280;DHT22;13225;47.804;12.116;2023-09-08T06:58:50;16.80;99.90
25280;DHT22;13225;47.804;12.116;2023-09-08T07:01:17;16.90;99.90
25280;DHT22;13225;47.804;12.116;2023-09-08T07:03:43;16.90;99.90
25280;DHT22;13225;47.804;12.116;2023-09-08T07:06:08;16.90;99.90
25280;DHT22;13225;47.804;12.116;2023-09-08T07:08:34;17.00;99.90
25280;DHT22;13225;47.804;12.116;2023-09-08T07:10:59;17.10;99.90
25280;DHT22;13225;47.804;12.116;2023-09-08T07:13:25;17.30;99.90
25280;DHT22;13225;47.804;12.116;2023-09-08T07:15:50;17.50;99.90
25280;DHT22;13225;47.804;12.116;2023-09-08T07:18:16;17.60;99.90
25280;DHT22;13225;47.804;12.116;2023-09-08T07:20:46;17.80;99.90
25280;DHT22;13225;47.804;12.116;2023-09-08T07:23:12;17.90;99.90
25280;DHT22;13225;47.804;12.116;2023-09-08T07:25:38;18.10;99.90
25280;DHT22;13225;47.804;12.116;2023-09-08T07:28:04;18.10;99.90
25280;DHT22;13225;47.804;12.116;2023-09-08T07:30:31;18.30;99.90
25280;DHT22;13225;47.804;12.116;2023-09-08T07:32:57;18.50;99.90
25280;DHT22;13225;47.804;12.116;2023-09-08T07:35:23;18.50;99.90
25280;DHT22;13225;47.804;12.116;2023-09-08T07:37:49;18.70;99.90
25280;DHT22;13225;47.804;12.116;2023-09-08T07:40:15;18.80;99.90
25280;DHT22;13225;47.804;12.116;2023-09-08T07:42:41;18.90;99.90
25280;DHT22;13225;47.804;12.116;2023-09-08T07:45:07;19.00;99.90
25280;DHT22;13225;47.804;12.116;2023-09-08T07:47:35;19.10;99.90
25280;DHT22;13225;47.804;12.116;2023-09-08T07:50:36;19.20;99.90
25280;DHT22;13225;47.804;12.116;2023-09-08T07:53:02;19.30;99.90
25280;DHT22;13225;47.804;12.116;2023-09-08T07:55:27;19.30;99.90
25280;DHT22;13225;47.804;12.116;2023-09-08T07:57:54;19.40;99.90
25280;DHT22;13225;47.804;12.116;2023-09-08T08:00:20;19.40;99.90
25280;DHT22;13225;47.804;12.116;2023-09-08T08:02:47;19.40;99.90
25280;DHT22;13225;47.804;12.116;2023-09-08T08:05:13;19.40;99.90
25280;DHT22;13225;47.804;12.116;2023-09-08T08:07:39;19.40;99.90
25280;DHT22;13225;47.804;12.116;2023-09-08T08:10:06;19.50;99.90
25280;DHT22;13225;47.804;12.116;2023-09-08T08:12:32;19.60;99.90
25280;DHT22;13225;47.804;12.116;2023-09-08T08:14:57;19.60;99.90
25280;DHT22;13225;47.804;12.116;2023-09-08T08:17:24;19.60;99.90
25280;DHT22;13225;47.804;12.116;2023-09-08T08:19:51;19.60;99.90
25280;DHT22;13225;47.804;12.116;2023-09-08T08:22:17;19.60;99.90
25280;DHT22;13225;47.804;12.116;2023-09-08T08:24:43;19.60;99.90
25280;DHT22;13225;47.804;12.116;2023-09-08T08:27:09;19.60;99.90
25280;DHT22;13225;47.804;12.116;2023-09-08T08:29:34;19.70;99.90
25280;DHT22;13225;47.804;12.116;2023-09-08T08:32:00;19.80;99.90
25280;DHT22;13225;47.804;12.116;2023-09-08T08:34:25;19.90;99.90
25280;DHT22;13225;47.804;12.116;2023-09-08T08:36:51;20.10;99.90
25280;DHT22;13225;47.804;12.116;2023-09-08T08:39:16;20.30;99.90
25280;DHT22;13225;47.804;12.116;2023-09-08T08:41:42;20.30;99.90
25280;DHT22;13225;47.804;12.116;2023-09-08T08:44:08;20.50;99.90
25280;DHT22;13225;47.804;12.116;2023-09-08T08:46:35;20.70;99.90
25280;DHT22;13225;47.804;12.116;2023-09-08T08:49:03;20.80;99.90
25280;DHT22;13225;47.804;12.116;2023-09-08T08:51:30;20.90;99.90
25280;DHT22;13225;47.804;12.116;2023-09-08T08:53:56;21.10;99.90
25280;DHT22;13225;47.804;12.116;2023-09-08T08:56:22;21.20;99.90
25280;DHT22;13225;47.804;12.116;2023-09-08T08:58:49;21.30;99.90
25280;DHT22;13225;47.804;12.116;2023-09-08T09:01:16;21.30;99.90
25280;DHT22;13225;47.804;12.116;2023-09-08T09:03:46;21.40;99.90
25280;DHT22;13225;47.804;12.116;2023-09-08T09:06:14;21.60;99.90
25280;DHT22;13225;47.804;12.116;2023-09-08T09:08:43;21.60;99.90
25280;DHT22;13225;47.804;12.116;2023-09-08T09:11:09;21.70;99.90
25280;DHT22;13225;47.804;12.116;2023-09-08T09:13:35;21.90;99.90
25280;DHT22;13225;47.804;12.116;2023-09-08T09:16:01;22.00;99.90
25280;DHT22;13225;47.804;12.116;2023-09-08T09:18:29;22.20;99.90
25280;DHT22;13225;47.804;12.116;2023-09-08T09:20:58;22.10;99.90
25280;DHT22;13225;47.804;12.116;2023-09-08T09:23:31;22.10;99.90
25280;DHT22;13225;47.804;12.116;2023-09-08T09:25:58;22.20;99.90
25280;DHT22;13225;47.804;12.116;2023-09-08T09:28:24;22.30;99.90
25280;DHT22;13225;47.804;12.116;2023-09-08T09:30:52;22.30;99.90
25280;DHT22;13225;47.804;12.116;2023-09-08T09:33:20;22.40;99.90
25280;DHT22;13225;47.804;12.116;2023-09-08T09:35:53;22.60;99.90
25280;DHT22;13225;47.804;12.116;2023-09-08T09:38:19;22.60;99.90
25280;DHT22;13225;47.804;12.116;2023-09-08T09:40:46;22.70;99.90
25280;DHT22;13225;47.804;12.116;2023-09-08T09:43:13;22.70;99.90
25280;DHT22;13225;47.804;12.116;2023-09-08T09:45:40;22.70;99.90
25280;DHT22;13225;47.804;12.116;2023-09-08T09:48:08;22.70;99.90
25280;DHT22;13225;47.804;12.116;2023-09-08T09:50:35;22.90;99.90
25280;DHT22;13225;47.804;12.116;2023-09-08T09:53:12;23.00;99.90
25280;DHT22;13225;47.804;12.116;2023-09-08T09:55:43;23.10;99.90
25280;DHT22;13225;47.804;12.116;2023-09-08T09:58:09;23.10;99.90
25280;DHT22;13225;47.804;12.116;2023-09-08T10:00:39;23.30;99.90
25280;DHT22;13225;47.804;12.116;2023-09-08T10:03:13;23.30;99.90
25280;DHT22;13225;47.804;12.116;2023-09-08T10:05:39;23.40;99.90
25280;DHT22;13225;47.804;12.116;2023-09-08T10:08:05;23.60;99.90
25280;DHT22;13225;47.804;12.116;2023-09-08T10:10:32;23.60;99.90
25280;DHT22;13225;47.804;12.116;2023-09-08T10:13:05;23.60;99.90
25280;DHT22;13225;47.804;12.116;2023-09-08T10:15:31;23.70;99.90
25280;DHT22;13225;47.804;12.116;2023-09-08T10:17:57;23.60;99.90
25280;DHT22;13225;47.804;12.116;2023-09-08T10:20:26;23.70;99.90
25280;DHT22;13225;47.804;12.116;2023-09-08T10:22:56;23.70;99.90
25280;DHT22;13225;47.804;12.116;2023-09-08T10:25:26;23.70;99.90
25280;DHT22;13225;47.804;12.116;2023-09-08T10:27:55;24.00;99.90
25280;DHT22;13225;47.804;12.116;2023-09-08T10:30:22;24.00;99.90
25280;DHT22;13225;47.804;12.116;2023-09-08T10:32:49;24.00;99.90
25280;DHT22;13225;47.804;12.116;2023-09-08T10:35:15;24.20;99.90
25280;DHT22;13225;47.804;12.116;2023-09-08T10:37:42;24.20;99.90
25280;DHT22;13225;47.804;12.116;2023-09-08T10:40:25;24.20;99.90
25280;DHT22;13225;47.804;12.116;2023-09-08T10:43:08;24.40;99.90
25280;DHT22;13225;47.804;12.116;2023-09-08T10:45:34;24.30;99.90
25280;DHT22;13225;47.804;12.116;2023-09-08T10:48:00;24.60;99.90
25280;DHT22;13225;47.804;12.116;2023-09-08T10:50:30;24.80;99.90
25280;DHT22;13225;47.804;12.116;2023-09-08T10:53:14;24.80;99.90
25280;DHT22;13225;47.804;12.116;2023-09-08T10:58:20;25.30;99.90
25280;DHT22;13225;47.804;12.116;2023-09-08T11:00:53;25.40;99.90
25280;DHT22;13225;47.804;12.116;2023-09-08T11:06:10;25.80;99.90
25280;DHT22;13225;47.804;12.116;2023-09-08T11:08:37;25.90;99.90
25280;DHT22;13225;47.804;12.116;2023-09-08T11:11:03;25.90;99.90
25280;DHT22;13225;47.804;12.116;2023-09-08T11:13:28;25.80;99.90
25280;DHT22;13225;47.804;12.116;2023-09-08T11:15:55;25.90;99.90
25280;DHT22;13225;47.804;12.116;2023-09-08T11:18:27;26.10;99.90
25280;DHT22;13225;47.804;12.116;2023-09-08T11:20:53;26.30;99.90
25280;DHT22;13225;47.804;12.116;2023-09-08T11:23:20;26.50;99.90
25280;DHT22;13225;47.804;12.116;2023-09-08T11:25:46;26.50;99.90
25280;DHT22;13225;47.804;12.116;2023-09-08T11:28:12;26.50;99.90
25280;DHT22;13225;47.804;12.116;2023-09-08T11:30:39;26.60;99.90
25280;DHT22;13225;47.804;12.116;2023-09-08T11:33:22;26.60;99.90
25280;DHT22;13225;47.804;12.116;2023-09-08T11:35:55;26.70;99.90
25280;DHT22;13225;47.804;12.116;2023-09-08T11:38:25;26.70;99.90
25280;DHT22;13225;47.804;12.116;2023-09-08T11:40:51;27.00;99.90
25280;DHT22;13225;47.804;12.116;2023-09-08T11:43:18;27.10;99.90
25280;DHT22;13225;47.804;12.116;2023-09-08T11:45:44;27.30;99.90
25280;DHT22;13225;47.804;12.116;2023-09-08T11:48:09;27.60;99.90
25280;DHT22;13225;47.804;12.116;2023-09-08T11:50:35;27.60;99.90
25280;DHT22;13225;47.804;12.116;2023-09-08T11:53:01;27.60;99.90
25280;DHT22;13225;47.804;12.116;2023-09-08T11:55:28;27.60;99.90
25280;DHT22;13225;47.804;12.116;2023-09-08T11:57:55;27.90;99.90
25280;DHT22;13225;47.804;12.116;2023-09-08T12:00:23;27.90;99.90
25280;DHT22;13225;47.804;12.116;2023-09-08T12:02:51;28.20;99.90
25280;DHT22;13225;47.804;12.116;2023-09-08T12:05:21;28.60;99.90
25280;DHT22;13225;47.804;12.116;2023-09-08T12:07:55;29.00;99.90
25280;DHT22;13225;47.804;12.116;2023-09-08T12:10:22;29.80;99.90
25280;DHT22;13225;47.804;12.116;2023-09-08T12:12:52;30.10;99.90
25280;DHT22;13225;47.804;12.116;2023-09-08T12:15:39;30.50;99.90
25280;DHT22;13225;47.804;12.116;2023-09-08T12:18:07;30.80;99.90
25280;DHT22;13225;47.804;12.116;2023-09-08T12:20:34;31.10;99.90
25280;DHT22;13225;47.804;12.116;2023-09-08T12:23:21;31.20;99.90
25280;DHT22;13225;47.804;12.116;2023-09-08T12:25:52;31.20;99.90
25280;DHT22;13225;47.804;12.116;2023-09-08T12:28:20;31.30;99.90
25280;DHT22;13225;47.804;12.116;2023-09-08T12:30:46;31.80;99.90
25280;DHT22;13225;47.804;12.116;2023-09-08T12:33:11;31.30;99.90
25280;DHT22;13225;47.804;12.116;2023-09-08T12:35:38;31.70;99.90
25280;DHT22;13225;47.804;12.116;2023-09-08T12:38:05;31.80;99.90
25280;DHT22;13225;47.804;12.116;2023-09-08T12:40:34;31.70;99.90
25280;DHT22;13225;47.804;12.116;2023-09-08T12:43:00;31.80;99.90
25280;DHT22;13225;47.804;12.116;2023-09-08T12:45:27;31.60;99.90
25280;DHT22;13225;47.804;12.116;2023-09-08T12:47:53;31.80;99.90
25280;DHT22;13225;47.804;12.116;2023-09-08T12:50:23;32.00;99.90
25280;DHT22;13225;47.804;12.116;2023-09-08T12:52:48;31.70;99.90
25280;DHT22;13225;47.804;12.116;2023-09-08T12:55:14;32.10;99.90
25280;DHT22;13225;47.804;12.116;2023-09-08T12:57:40;32.40;99.90
25280;DHT22;13225;47.804;12.116;2023-09-08T13:00:06;32.30;99.90
25280;DHT22;13225;47.804;12.116;2023-09-08T13:02:32;32.40;99.90
25280;DHT22;13225;47.804;12.116;2023-09-08T13:04:58;32.50;99.90
25280;DHT22;13225;47.804;12.116;2023-09-08T13:07:24;32.90;99.90
25280;DHT22;13225;47.804;12.116;2023-09-08T13:09:50;32.70;99.90
25280;DHT22;13225;47.804;12.116;2023-09-08T13:12:16;32.70;99.90
25280;DHT22;13225;47.804;12.116;2023-09-08T13:14:42;32.60;99.90
25280;DHT22;13225;47.804;12.116;2023-09-08T13:17:09;32.50;99.90
25280;DHT22;13225;47.804;12.116;2023-09-08T13:19:35;32.50;99.90
25280;DHT22;13225;47.804;12.116;2023-09-08T13:22:03;32.60;99.90
25280;DHT22;13225;47.804;12.116;2023-09-08T13:24:29;33.00;99.90
25280;DHT22;13225;47.804;12.116;2023-09-08T13:26:54;32.70;99.90
25280;DHT22;13225;47.804;12.116;2023-09-08T13:29:20;32.60;99.90
25280;DHT22;13225;47.804;12.116;2023-09-08T13:31:45;32.40;99.90
25280;DHT22;13225;47.804;12.116;2023-09-08T13:34:11;32.30;99.90
25280;DHT22;13225;47.804;12.116;2023-09-08T13:36:37;32.10;99.90
25280;DHT22;13225;47.804;12.116;2023-09-08T13:39:02;32.10;99.90
25280;DHT22;13225;47.804;12.116;2023-09-08T13:44:19;31.90;99.90
25280;DHT22;13225;47.804;12.116;2023-09-08T13:46:46;32.10;99.90
25280;DHT22;13225;47.804;12.116;2023-09-08T13:49:12;32.40;99.90
25280;DHT22;13225;47.804;12.116;2023-09-08T13:51:37;32.60;99.90
25280;DHT22;13225;47.804;12.116;2023-09-08T13:54:03;32.70;99.90
25280;DHT22;13225;47.804;12.116;2023-09-08T13:56:29;32.60;99.90
25280;DHT22;13225;47.804;12.116;2023-09-08T13:58:54;32.30;99.90
25280;DHT22;13225;47.804;12.116;2023-09-08T14:01:20;32.70;99.90
25280;DHT22;13225;47.804;12.116;2023-09-08T14:03:45;32.60;99.90
25280;DHT22;13225;47.804;12.116;2023-09-08T14:06:11;32.40;99.90
25280;DHT22;13225;47.804;12.116;2023-09-08T14:08:36;32.40;99.90
25280;DHT22;13225;47.804;12.116;2023-09-08T14:11:02;32.50;99.90
25280;DHT22;13225;47.804;12.116;2023-09-08T14:13:28;32.40;99.90
25280;DHT22;13225;47.804;12.116;2023-09-08T14:15:53;32.20;99.90
25280;DHT22;13225;47.804;12.116;2023-09-08T14:18:19;31.80;99.90
25280;DHT22;13225;47.804;12.116;2023-09-08T14:20:45;31.90;99.90
25280;DHT22;13225;47.804;12.116;2023-09-08T14:23:10;32.00;99.90
25280;DHT22;13225;47.804;12.116;2023-09-08T14:25:36;32.20;99.90
25280;DHT22;13225;47.804;12.116;2023-09-08T14:28:01;32.20;99.90
25280;DHT22;13225;47.804;12.116;2023-09-08T14:30:30;32.90;99.90
25280;DHT22;13225;47.804;12.116;2023-09-08T14:32:56;32.70;99.90
25280;DHT22;13225;47.804;12.116;2023-09-08T14:35:22;32.10;99.90
25280;DHT22;13225;47.804;12.116;2023-09-08T14:37:48;32.30;99.90
25280;DHT22;13225;47.804;12.116;2023-09-08T14:40:14;32.70;99.90
25280;DHT22;13225;47.804;12.116;2023-09-08T14:42:40;32.70;99.90
25280;DHT22;13225;47.804;12.116;2023-09-08T14:45:06;33.20;99.90
25280;DHT22;13225;47.804;12.116;2023-09-08T14:47:31;34.00;99.90
25280;DHT22;13225;47.804;12.116;2023-09-08T14:49:57;33.90;99.90
25280;DHT22;13225;47.804;12.116;2023-09-08T14:52:23;33.80;99.90
25280;DHT22;13225;47.804;12.116;2023-09-08T14:54:49;33.80;99.90
25280;DHT22;13225;47.804;12.116;2023-09-08T14:57:15;33.30;99.90
25280;DHT22;13225;47.804;12.116;2023-09-08T14:59:40;33.10;99.90
25280;DHT22;13225;47.804;12.116;2023-09-08T15:02:07;33.10;99.90
25280;DHT22;13225;47.804;12.116;2023-09-08T15:04:33;33.10;99.90
25280;DHT22;13225;47.804;12.116;2023-09-08T15:06:59;33.10;99.90
25280;DHT22;13225;47.804;12.116;2023-09-08T15:09:24;32.90;99.90
25280;DHT22;13225;47.804;12.116;2023-09-08T15:11:50;33.30;99.90
25280;DHT22;13225;47.804;12.116;2023-09-08T15:14:15;33.60;99.90
25280;DHT22;13225;47.804;12.116;2023-09-08T15:16:42;32.90;99.90
25280;DHT22;13225;47.804;12.116;2023-09-08T15:19:07;32.40;99.90
25280;DHT22;13225;47.804;12.116;2023-09-08T15:21:33;31.70;99.90
25280;DHT22;13225;47.804;12.116;2023-09-08T15:23:59;32.00;99.90